operationworld.org alexa rank chart, operationworld.org alexa rank daily changes

operationworld.org alexa rank chart, operationworld.org alexa rank daily changes

operationworld.org
Actual rank:
203 660

RANK HISTORY

Date Rank Diff
2017/04/20 203 660 -3 563
2017/04/19 207 223 -1 003
2017/04/18 208 226 +3 593
2017/04/17 204 633 +2 994
2017/04/16 201 639 +10 497
2017/04/15 191 142 -1 045
2017/04/14 192 187 +2 142
2017/04/13 190 045 -5 347
2017/04/12 195 392 -2 107
2017/04/11 197 499 +2 259
2017/04/10 195 240 -461
2017/04/09 195 701 +580
2017/04/08 195 121 +1 182
2017/04/07 193 939 -2 652
2017/04/06 196 591 +8 250
2017/04/05 188 341 +476
2017/04/04 187 865 -3 197
2017/04/03 191 062 +46
2017/04/02 191 016 -769
2017/04/01 191 785 -3 161
2017/03/31 194 946 +1 496
2017/03/30 193 450 -2 152
2017/03/29 195 602 -735
2017/03/28 196 337 -3 898
2017/03/27 200 235 +1 311
2017/03/26 198 924 +3 853
2017/03/25 195 071 -5 918
2017/03/24 200 989 -2 719
2017/03/23 203 708 -2 999
2017/03/22 206 707 +326
2017/03/21 206 381 +4 009
2017/03/20 202 372 +456
2017/03/19 201 916 +4 838
2017/03/18 197 078 -3 477
2017/03/17 200 555 +1 492
2017/03/16 199 063 -12 807
2017/03/15 211 870 +4 039
2017/03/14 207 831 +7 196
2017/03/13 200 635 +4 496
2017/03/12 196 139 +1 407
2017/03/11 194 732 +2 157
2017/03/10 192 575 +984
2017/03/09 191 591 -4 261
2017/03/08 195 852 -14 330
2017/03/07 210 182 -9 141
2017/03/06 219 323 +406
2017/03/01 218 917 +885
2017/02/28 218 032 +3 469
2017/02/27 214 563 -4 376
2017/02/26 218 939 -1 271
2017/02/25 220 210 +7 305
2017/02/24 212 905 -5 664
2017/02/23 218 569 +3 282
2017/02/22 215 287 +1 224
2017/02/21 214 063 -4 639
2017/02/20 218 702 -4 548
2017/02/19 223 250

WIDGET FOR YOUR SITE

DOMAINS WITH THE NEAREST RANK

Domain Rank
sonokinetic.net 203 655
omnidesk.ru 203 656
zeanhot.com 203 657
casaevideo.com.br 203 658
suohoo.com 203 659
operationworld.org 203 660
dinstartsida.se 203 661
lenstore.co.uk 203 662
onlinevideolecture.com 203 663
daidostup.me 203 664
trwholesalesolutions.com 203 665

DOMAINS WITH THE NEAREST RANK BY TLD .org

Domain Rank
tdwi.org 203 574
prism-break.org 203 595
campusvirtualsp.org 203 596
mspca.org 203 606
pageborders.org 203 635
operationworld.org 203 660
baseballhall.org 203 730
proftpd.org 203 734
trrnts.org 203 740
sixsigmaonline.org 203 743
politikfilm.org 203 813